Bluntzer, Texas
Current Conditions -  °F | °C
As of 4:15 PM on Thursday 18 Dec 2014 (Local Time) from KRBO Reporting Station
Overcast Overcast  
Wind Chill: 76°   Ceiling: 8000
Heat Index: 78°   Visibility: 10mi
Dew Point: 66°   Wind: 10mph
Humidity: 71%   Direction: 160°SSE
Pressure: 29.96"   Gusts: NA
Location:  27.7757°N, 97.7554°W
Report Text: KRBO 182215Z AUTO 16009KT 10SM OVC080 25/19 A2996 RMK AO2 T02450190
Loading
Personal Weather Stations






























Interactive Weather Map New forecast layout! Learn more

10-Day Weather Forecast

Advertisements
Track Severe Weather on mobile